Terminal Aerodrome Forecast
Issued by NWS

Home | Current Version | Previous Version | Text Only | Print | Product List | Glossary Off
Versions: 1 2 3 4 5 6 7 8 9 10 11 12 13 14 15 16 17 18 19 20 21

537
FTUS43 KABR 221924 AAA
TAFPIR
TAF AMD
KPIR 221924Z 2219/2318 13011KT 2SM -SN BR OVC025
      TEMPO 2220/2224 3/4SM -SN BR OVC015
     FM230000 10007KT 3/4SM -SN OVC015
     FM230300 08004KT P6SM OVC008
     FM230600 VRB03KT P6SM OVC010
     FM230900 30006KT P6SM BKN015
     FM231700 30006KT P6SM SCT050=

USA.gov is the U.S. government's official web portal to all federal, state and local government web resources and services.